createdAt,value
2018-10-01T00:02:20.705Z,16.37
2018-10-01T00:04:49.116Z,26.33
2018-10-01T00:07:17.467Z,14.57
2018-10-01T00:09:52.532Z,14.73
2018-10-01T00:12:20.940Z,12.43
2018-10-01T00:14:49.408Z,12.60
2018-10-01T00:17:18.060Z,17.50
2018-10-01T00:19:51.487Z,19.70
2018-10-01T00:22:25.113Z,17.10
2018-10-01T00:24:53.387Z,19.83
2018-10-01T00:27:21.611Z,15.43
2018-10-01T00:29:49.812Z,20.27
2018-10-01T00:32:18.136Z,21.93
2018-10-01T00:34:46.656Z,22.03
2018-10-01T00:37:15.226Z,21.00
2018-10-01T00:39:43.653Z,21.20
2018-10-01T00:42:11.934Z,25.77
2018-10-01T00:44:40.296Z,26.80
2018-10-01T00:47:08.679Z,19.70
2018-10-01T00:49:37.006Z,21.90
2018-10-01T00:52:05.409Z,21.33
2018-10-01T00:54:33.545Z,22.33
2018-10-01T00:57:02.180Z,23.27
2018-10-01T00:59:30.584Z,24.97
2018-10-01T01:01:59.069Z,21.93
2018-10-01T01:04:27.626Z,19.77
2018-10-01T01:06:55.951Z,20.17
2018-10-01T01:09:24.464Z,19.10
2018-10-01T01:11:52.787Z,22.93
2018-10-01T01:14:21.403Z,22.07
2018-10-01T01:16:49.617Z,18.73
2018-10-01T01:19:17.991Z,43.30
2018-10-01T01:21:46.090Z,20.50
2018-10-01T01:24:14.563Z,28.27
2018-10-01T01:26:42.778Z,26.87
2018-10-01T01:29:11.244Z,22.33
2018-10-01T01:31:39.671Z,24.20
2018-10-01T01:34:08.130Z,21.50
2018-10-01T01:36:36.546Z,26.93
2018-10-01T01:39:06.465Z,25.53
2018-10-01T01:41:41.267Z,25.27
2018-10-01T01:44:09.843Z,20.03
2018-10-01T01:46:38.320Z,19.27
2018-10-01T01:49:06.503Z,21.43
2018-10-01T01:51:35.049Z,20.97
2018-10-01T01:54:03.480Z,18.60
2018-10-01T01:56:31.609Z,19.10
2018-10-01T01:59:00.125Z,22.00
2018-10-01T02:01:28.475Z,20.53
2018-10-01T02:03:56.690Z,21.20
2018-10-01T02:06:25.260Z,22.20
2018-10-01T02:08:53.807Z,21.73
2018-10-01T02:11:22.813Z,22.27
2018-10-01T02:13:50.834Z,22.70
2018-10-01T02:16:19.067Z,19.90
2018-10-01T02:18:47.287Z,18.90
2018-10-01T02:21:15.288Z,13.37
2018-10-01T02:23:43.660Z,16.47
2018-10-01T02:26:12.198Z,15.90
2018-10-01T02:28:40.588Z,12.73
2018-10-01T02:31:08.968Z,12.97
2018-10-01T02:33:37.343Z,10.53
2018-10-01T02:36:05.712Z,8.00
2018-10-01T02:38:34.101Z,6.63
2018-10-01T02:41:02.552Z,5.00
2018-10-01T02:43:31.022Z,8.70
2018-10-01T02:45:59.161Z,5.67
2018-10-01T02:48:27.569Z,7.93
2018-10-01T02:50:55.902Z,3.73
2018-10-01T02:53:29.562Z,3.70
2018-10-01T02:55:57.982Z,3.73
2018-10-01T02:58:26.061Z,4.30
2018-10-01T03:00:55.417Z,3.77
2018-10-01T03:03:23.579Z,4.60
2018-10-01T03:05:51.603Z,3.70
2018-10-01T03:08:20.308Z,3.03
2018-10-01T03:10:48.403Z,3.10
2018-10-01T03:13:16.804Z,2.90
2018-10-01T03:15:44.859Z,3.07
2018-10-01T03:18:13.078Z,3.13
2018-10-01T03:20:41.231Z,2.87
2018-10-01T03:23:09.717Z,8.07
2018-10-01T03:25:38.120Z,4.60
2018-10-01T03:28:06.531Z,3.60
2018-10-01T03:30:35.022Z,4.73
2018-10-01T03:33:04.403Z,7.17
2018-10-01T03:35:32.477Z,5.27
2018-10-01T03:38:01.030Z,7.27
2018-10-01T03:40:30.355Z,7.57
2018-10-01T03:42:58.783Z,5.50
2018-10-01T03:45:27.257Z,6.33
2018-10-01T03:47:55.638Z,11.13
2018-10-01T03:50:23.985Z,9.40
2018-10-01T03:52:52.373Z,5.33
2018-10-01T03:55:20.738Z,7.30
2018-10-01T03:57:48.923Z,10.50
2018-10-01T04:00:17.318Z,5.50
2018-10-01T04:02:45.696Z,5.50
2018-10-01T04:05:14.101Z,9.23
2018-10-01T04:07:42.407Z,6.47
2018-10-01T04:10:10.725Z,10.53
2018-10-01T04:12:38.780Z,9.43
2018-10-01T04:15:07.213Z,7.87
2018-10-01T04:17:35.646Z,11.60
2018-10-01T04:20:04.102Z,10.23
2018-10-01T04:22:37.400Z,11.70
2018-10-01T04:25:06.447Z,13.37
2018-10-01T04:27:35.121Z,10.43
2018-10-01T04:30:03.535Z,8.80
2018-10-01T04:32:31.988Z,12.40
2018-10-01T04:35:00.403Z,12.20
2018-10-01T04:37:28.830Z,16.00
2018-10-01T04:39:57.224Z,9.33
2018-10-01T04:42:25.567Z,8.40
2018-10-01T04:44:53.850Z,12.13
2018-10-01T04:47:22.071Z,19.40
2018-10-01T04:49:50.267Z,8.97
2018-10-01T04:52:18.553Z,8.57
2018-10-01T04:54:47.011Z,6.43
2018-10-01T04:57:15.426Z,8.30
2018-10-01T04:59:43.808Z,7.40
2018-10-01T05:02:12.176Z,7.20
2018-10-01T05:04:40.575Z,6.40
2018-10-01T05:07:08.897Z,7.07
2018-10-01T05:09:37.214Z,6.33
2018-10-01T05:12:05.508Z,5.60
2018-10-01T05:14:33.611Z,7.53
2018-10-01T05:17:01.659Z,11.67
2018-10-01T05:19:30.039Z,7.27
2018-10-01T05:21:58.308Z,10.63
2018-10-01T05:24:26.489Z,7.77
2018-10-01T05:26:54.903Z,6.70
2018-10-01T05:29:23.276Z,5.37
2018-10-01T05:31:51.580Z,7.60
2018-10-01T05:34:19.997Z,9.10
2018-10-01T05:37:51.769Z,7.27
2018-10-01T05:40:20.136Z,13.23
2018-10-01T05:42:48.472Z,6.97
2018-10-01T05:45:16.767Z,7.07
2018-10-01T05:47:44.956Z,6.17
2018-10-01T05:50:13.359Z,2.47
2018-10-01T05:52:41.621Z,2.70
2018-10-01T05:55:09.812Z,2.17
2018-10-01T05:57:37.874Z,2.93
2018-10-01T06:00:06.207Z,7.63
2018-10-01T06:02:34.449Z,3.00
2018-10-01T06:05:02.833Z,4.17
2018-10-01T06:07:31.134Z,1.63
2018-10-01T06:09:59.432Z,1.90
2018-10-01T06:12:27.749Z,2.37
2018-10-01T06:14:56.022Z,1.60
2018-10-01T06:17:24.112Z,1.43
2018-10-01T06:19:52.482Z,2.80
2018-10-01T06:22:20.889Z,1.93
2018-10-01T06:24:49.202Z,2.93
2018-10-01T06:27:17.595Z,1.70
2018-10-01T06:29:45.897Z,5.00
2018-10-01T06:32:14.214Z,2.30
2018-10-01T06:34:42.556Z,4.13
2018-10-01T06:37:10.694Z,2.77
2018-10-01T06:39:38.736Z,2.00
2018-10-01T06:42:06.800Z,2.00
2018-10-01T06:44:35.128Z,4.13
2018-10-01T06:47:03.472Z,1.53
2018-10-01T06:49:31.851Z,3.03
2018-10-01T06:52:00.185Z,1.00
2018-10-01T06:54:28.556Z,1.73
2018-10-01T06:56:56.914Z,1.80
2018-10-01T06:59:25.340Z,57.60
2018-10-01T07:01:53.675Z,7.53
2018-10-01T07:04:22.034Z,1.90
2018-10-01T07:06:50.326Z,1.30
2018-10-01T07:09:18.807Z,4.20
2018-10-01T07:11:47.399Z,1.60
2018-10-01T07:14:15.462Z,1.60
2018-10-01T07:16:43.933Z,3.33
2018-10-01T07:19:12.503Z,2.00
2018-10-01T07:21:40.703Z,2.63
2018-10-01T07:24:08.891Z,1.60
2018-10-01T07:26:37.191Z,1.73
2018-10-01T07:29:05.427Z,1.50
2018-10-01T07:31:33.681Z,5.43
2018-10-01T07:34:01.871Z,1.83
2018-10-01T07:36:30.055Z,1.40
2018-10-01T07:38:58.335Z,10.87
2018-10-01T07:41:26.470Z,2.10
2018-10-01T07:43:54.671Z,1.83
2018-10-01T07:46:22.961Z,1.70
2018-10-01T07:48:51.395Z,1.60
2018-10-01T07:51:19.579Z,1.50
2018-10-01T07:53:47.837Z,1.40
2018-10-01T07:56:15.998Z,7.43
2018-10-01T07:58:44.211Z,1.73
2018-10-01T08:01:12.412Z,3.70
2018-10-01T08:03:40.603Z,5.47
2018-10-01T08:06:08.797Z,5.83
2018-10-01T08:08:37.041Z,1.73
2018-10-01T08:11:05.322Z,1.77
2018-10-01T08:13:33.494Z,1.90
2018-10-01T08:16:01.683Z,5.50
2018-10-01T08:18:29.877Z,4.90
2018-10-01T08:20:58.070Z,1.70
2018-10-01T08:23:26.268Z,5.13
2018-10-01T08:25:54.455Z,2.13
2018-10-01T08:28:22.627Z,4.60
2018-10-01T08:30:50.813Z,2.20
2018-10-01T08:33:19.105Z,1.53
2018-10-01T08:35:47.295Z,2.90
2018-10-01T08:38:15.530Z,1.50
2018-10-01T08:40:43.706Z,1.53
2018-10-01T08:43:12.659Z,3.03
2018-10-01T08:45:40.863Z,1.93
2018-10-01T08:48:09.648Z,2.20
2018-10-01T08:50:43.359Z,4.30
2018-10-01T08:53:16.675Z,4.87
2018-10-01T08:55:44.815Z,2.13
2018-10-01T08:58:13.028Z,4.00
2018-10-01T09:00:41.214Z,4.03
2018-10-01T09:03:09.398Z,3.77
2018-10-01T09:05:37.701Z,8.00
2018-10-01T09:08:06.013Z,15.50
2018-10-01T09:10:34.126Z,14.57
2018-10-01T09:13:02.351Z,14.73
2018-10-01T09:15:30.559Z,15.13
2018-10-01T09:17:58.795Z,12.87
2018-10-01T09:20:26.998Z,12.97
2018-10-01T09:22:55.192Z,17.37
2018-10-01T09:25:23.397Z,18.97
2018-10-01T09:27:51.603Z,28.27
2018-10-01T09:30:19.805Z,26.83
2018-10-01T09:32:47.982Z,19.50
2018-10-01T09:35:16.252Z,19.73
2018-10-01T09:37:44.128Z,17.67
2018-10-01T09:40:12.409Z,29.33
2018-10-01T09:42:40.536Z,26.53
2018-10-01T09:45:08.732Z,25.63
2018-10-01T09:47:36.945Z,26.30
2018-10-01T09:50:05.169Z,28.83
2018-10-01T09:52:33.384Z,24.90
2018-10-01T09:55:01.516Z,31.53
2018-10-01T09:57:29.731Z,30.43
2018-10-01T09:59:57.956Z,28.13
2018-10-01T10:02:26.201Z,33.20
2018-10-01T10:04:54.446Z,22.50
2018-10-01T10:07:22.535Z,31.20
2018-10-01T10:09:50.767Z,36.10
2018-10-01T10:12:18.954Z,28.10
2018-10-01T10:14:47.175Z,28.33
2018-10-01T10:17:15.373Z,33.97
2018-10-01T10:19:43.560Z,34.43
2018-10-01T10:22:11.762Z,30.63
2018-10-01T10:24:39.930Z,28.97
2018-10-01T10:27:08.127Z,24.80
2018-10-01T10:29:36.315Z,26.40
2018-10-01T10:32:04.548Z,36.70
2018-10-01T10:34:32.468Z,27.70
2018-10-01T10:37:00.651Z,25.13
2018-10-01T10:39:28.852Z,26.00
2018-10-01T10:41:57.073Z,42.07
2018-10-01T10:44:25.263Z,27.63
2018-10-01T10:46:53.473Z,32.53
2018-10-01T10:49:21.670Z,27.10
2018-10-01T10:51:49.880Z,27.40
2018-10-01T10:54:18.059Z,32.13
2018-10-01T10:56:46.256Z,28.43
2018-10-01T10:59:14.423Z,27.57
2018-10-01T11:01:42.628Z,26.47
2018-10-01T11:04:10.827Z,24.00
2018-10-01T11:06:39.039Z,34.60
2018-10-01T11:09:08.471Z,26.53
2018-10-01T11:11:36.664Z,30.30
2018-10-01T11:14:05.027Z,29.60
2018-10-01T11:16:33.111Z,32.60
2018-10-01T11:19:01.581Z,28.70
2018-10-01T11:21:29.765Z,28.27
2018-10-01T11:23:57.843Z,42.10
2018-10-01T11:26:26.049Z,37.43
2018-10-01T11:28:54.251Z,49.57
2018-10-01T11:31:22.490Z,34.63
2018-10-01T11:33:50.649Z,32.43
2018-10-01T11:36:18.852Z,30.47
2018-10-01T11:38:47.071Z,37.67
2018-10-01T11:41:15.306Z,33.90
2018-10-01T11:43:43.499Z,40.03
2018-10-01T11:46:11.700Z,34.83
2018-10-01T11:48:39.890Z,31.20
2018-10-01T11:51:08.115Z,30.60
2018-10-01T11:53:36.330Z,45.03
2018-10-01T11:56:04.552Z,41.30
2018-10-01T11:58:32.808Z,50.37
2018-10-01T12:01:01.024Z,26.73
2018-10-01T12:03:29.233Z,35.80
2018-10-01T12:05:57.412Z,32.10
2018-10-01T12:08:25.611Z,33.53
2018-10-01T12:10:53.804Z,33.67
2018-10-01T12:13:21.996Z,26.57
2018-10-01T12:15:50.388Z,40.23
2018-10-01T12:18:18.375Z,28.70
2018-10-01T12:20:46.563Z,34.53
2018-10-01T12:23:14.769Z,30.63
2018-10-01T12:25:42.977Z,42.53
2018-10-01T12:28:11.168Z,33.80
2018-10-01T12:30:39.363Z,34.33
2018-10-01T12:33:07.689Z,35.47
2018-10-01T12:35:35.801Z,33.37
2018-10-01T12:38:03.994Z,41.87
2018-10-01T12:40:32.180Z,37.53
2018-10-01T12:43:00.466Z,37.30
2018-10-01T12:45:28.694Z,31.03
2018-10-01T12:47:56.904Z,45.03
2018-10-01T12:50:25.116Z,64.10
2018-10-01T12:52:53.309Z,51.40
2018-10-01T12:55:21.537Z,40.67
2018-10-01T12:57:49.699Z,33.67
2018-10-01T13:00:17.895Z,35.43
2018-10-01T13:02:46.098Z,36.63
2018-10-01T13:05:14.423Z,56.40
2018-10-01T13:07:43.030Z,73.87
2018-10-01T13:10:11.280Z,44.67
2018-10-01T13:12:39.556Z,58.80
2018-10-01T13:15:07.680Z,89.20
2018-10-01T13:17:35.873Z,49.70
2018-10-01T13:20:04.108Z,38.17
2018-10-01T13:22:32.307Z,38.73
2018-10-01T13:25:00.523Z,56.13
2018-10-01T13:27:28.792Z,56.10
2018-10-01T13:29:56.981Z,47.33
2018-10-01T13:32:25.176Z,35.43
2018-10-01T13:34:53.390Z,37.93
2018-10-01T13:37:21.628Z,34.43
2018-10-01T13:39:49.830Z,31.80
2018-10-01T13:42:18.166Z,38.87
2018-10-01T13:44:45.967Z,38.00
2018-10-01T13:47:13.922Z,47.20
2018-10-01T13:49:42.140Z,45.77
2018-10-01T13:52:10.371Z,55.33
2018-10-01T13:54:38.593Z,48.67
2018-10-01T13:57:06.968Z,48.13
2018-10-01T13:59:35.191Z,48.23
2018-10-01T14:02:03.416Z,62.07
2018-10-01T14:04:31.672Z,50.50
2018-10-01T14:06:59.925Z,54.93
2018-10-01T14:09:28.055Z,57.70
2018-10-01T14:11:56.242Z,59.30
2018-10-01T14:14:24.435Z,77.10
2018-10-01T14:16:52.638Z,79.47
2018-10-01T14:19:20.877Z,94.73
2018-10-01T14:21:49.040Z,46.53
2018-10-01T14:24:17.273Z,50.07
2018-10-01T14:26:45.476Z,44.17
2018-10-01T14:29:13.673Z,43.63
2018-10-01T14:31:41.854Z,48.50
2018-10-01T14:34:10.048Z,63.83
2018-10-01T14:36:38.268Z,54.30
2018-10-01T14:39:09.542Z,50.53
2018-10-01T14:41:37.744Z,53.07
2018-10-01T14:44:05.936Z,47.60
2018-10-01T14:46:34.294Z,62.47
2018-10-01T14:49:02.503Z,83.37
2018-10-01T14:51:30.779Z,387.80
2018-10-01T14:53:59.053Z,348.60
2018-10-01T14:56:27.260Z,166.63
2018-10-01T14:58:55.462Z,78.53
2018-10-01T15:01:23.721Z,136.90
2018-10-01T15:03:51.950Z,95.57
2018-10-01T15:06:20.142Z,103.53
2018-10-01T15:08:48.343Z,106.73
2018-10-01T15:11:16.536Z,65.40
2018-10-01T15:13:44.747Z,70.20
2018-10-01T15:16:12.973Z,68.23
2018-10-01T15:18:41.150Z,68.27
2018-10-01T15:21:09.364Z,64.50
2018-10-01T15:23:37.562Z,44.00
2018-10-01T15:26:05.793Z,33.50
2018-10-01T15:28:34.074Z,29.20
2018-10-01T15:31:02.279Z,30.97
2018-10-01T15:33:30.501Z,51.93
2018-10-01T15:35:58.783Z,37.30
2018-10-01T15:38:26.967Z,96.87
2018-10-01T15:40:55.191Z,108.90
2018-10-01T15:43:23.439Z,132.47
2018-10-01T15:45:51.661Z,112.47
2018-10-01T15:48:19.869Z,104.97
2018-10-01T15:50:47.819Z,86.20
2018-10-01T15:53:16.054Z,52.47
2018-10-01T15:55:44.321Z,40.17
2018-10-01T15:58:12.459Z,39.67
2018-10-01T16:00:40.761Z,38.83
2018-10-01T16:03:08.982Z,31.30
2018-10-01T16:05:37.159Z,40.50
2018-10-01T16:08:05.414Z,40.13
2018-10-01T16:10:33.606Z,36.23
2018-10-01T16:13:01.799Z,43.63
2018-10-01T16:15:29.993Z,49.77
2018-10-01T16:17:58.227Z,33.23
2018-10-01T16:20:26.379Z,40.30
2018-10-01T16:25:28.361Z,34.80
2018-10-01T16:27:56.550Z,38.13
2018-10-01T16:30:24.769Z,40.20
2018-10-01T16:32:52.960Z,35.30
2018-10-01T16:35:21.172Z,40.87
2018-10-01T16:37:49.390Z,47.63
2018-10-01T16:40:17.676Z,63.00
2018-10-01T16:47:53.186Z,40.10
2018-10-01T16:50:21.375Z,42.53
2018-10-01T16:52:49.697Z,42.60
2018-10-01T16:55:17.995Z,53.13
2018-10-01T16:57:46.192Z,198.13
2018-10-01T17:00:14.395Z,178.87
2018-10-01T17:02:42.597Z,403.23
2018-10-01T17:05:10.805Z,56.30
2018-10-01T17:07:39.046Z,67.40
2018-10-01T17:10:07.239Z,143.47
2018-10-01T17:12:35.442Z,212.70
2018-10-01T17:15:03.712Z,152.90
2018-10-01T17:17:31.920Z,197.67
2018-10-01T17:20:00.191Z,138.07
2018-10-01T17:22:28.407Z,169.07
2018-10-01T17:24:56.603Z,85.87
2018-10-01T17:27:24.826Z,110.57
2018-10-01T17:29:53.147Z,221.57
2018-10-01T17:32:21.337Z,125.67
2018-10-01T17:34:49.539Z,50.80
2018-10-01T17:37:17.731Z,63.40
2018-10-01T17:39:45.937Z,72.17
2018-10-01T17:42:14.184Z,103.37
2018-10-01T17:44:42.501Z,73.83
2018-10-01T17:47:10.696Z,88.87
2018-10-01T17:49:38.891Z,44.70
2018-10-01T17:52:07.078Z,52.63
2018-10-01T17:54:35.307Z,285.90
2018-10-01T17:57:03.525Z,144.53
2018-10-01T17:59:31.767Z,52.03
2018-10-01T18:02:00.040Z,57.63
2018-10-01T18:04:28.224Z,44.53
2018-10-01T18:06:56.435Z,36.77
2018-10-01T18:09:24.640Z,51.83
2018-10-01T18:11:52.859Z,44.97
2018-10-01T18:14:21.044Z,37.83
2018-10-01T18:16:49.267Z,39.00
2018-10-01T18:19:17.544Z,34.17
2018-10-01T18:21:45.782Z,38.53
2018-10-01T18:24:13.962Z,36.10
2018-10-01T18:26:42.142Z,36.83
2018-10-01T18:29:10.339Z,38.33
2018-10-01T18:31:38.602Z,32.77
2018-10-01T18:34:13.631Z,39.00
2018-10-01T18:36:41.840Z,33.53
2018-10-01T18:39:14.935Z,67.03
2018-10-01T18:41:43.126Z,33.03
2018-10-01T18:44:11.336Z,31.33
2018-10-01T18:46:39.527Z,37.37
2018-10-01T18:49:07.756Z,43.90
2018-10-01T18:51:36.767Z,40.70
2018-10-01T18:54:05.030Z,37.47
2018-10-01T18:56:33.179Z,34.30
2018-10-01T18:59:01.375Z,38.20
2018-10-01T19:01:29.689Z,32.87
2018-10-01T19:03:57.630Z,40.40
2018-10-01T19:06:25.824Z,34.10
2018-10-01T19:08:54.118Z,41.20
2018-10-01T19:11:22.323Z,43.90
2018-10-01T19:13:50.551Z,34.93
2018-10-01T19:16:18.752Z,33.53
2018-10-01T19:18:46.946Z,50.60
2018-10-01T19:21:15.192Z,37.30
2018-10-01T19:23:43.422Z,41.80
2018-10-01T19:26:11.636Z,39.23
2018-10-01T19:28:40.292Z,33.63
2018-10-01T19:31:08.472Z,34.73
2018-10-01T19:33:36.751Z,31.30
2018-10-01T19:36:05.091Z,30.13
2018-10-01T19:38:33.273Z,35.57
2018-10-01T19:41:01.470Z,29.77
2018-10-01T19:43:29.710Z,29.23
2018-10-01T19:45:57.932Z,26.40
2018-10-01T19:48:26.180Z,31.03
2018-10-01T19:50:54.415Z,34.33
2018-10-01T19:53:22.593Z,26.77
2018-10-01T19:56:53.993Z,29.47
2018-10-01T19:59:22.269Z,23.93
2018-10-01T20:01:50.405Z,29.40
2018-10-01T20:04:18.608Z,26.37
2018-10-01T20:06:46.801Z,30.30
2018-10-01T20:09:14.992Z,26.70
2018-10-01T20:11:43.282Z,28.17
2018-10-01T20:14:11.481Z,23.63
2018-10-01T20:16:39.734Z,24.13
2018-10-01T20:19:07.992Z,23.43
2018-10-01T20:21:36.199Z,24.97
2018-10-01T20:24:04.447Z,22.90
2018-10-01T20:26:32.804Z,21.60
2018-10-01T20:29:01.289Z,27.27
2018-10-01T20:31:29.229Z,17.33
2018-10-01T20:33:57.185Z,21.83
2018-10-01T20:36:25.185Z,31.87
2018-10-01T20:38:53.364Z,21.37
2018-10-01T20:41:21.795Z,18.77
2018-10-01T20:43:50.024Z,19.97
2018-10-01T20:46:18.203Z,20.90
2018-10-01T20:48:46.435Z,19.83
2018-10-01T20:51:14.655Z,17.67
2018-10-01T20:53:43.026Z,22.43
2018-10-01T20:56:11.180Z,22.03
2018-10-01T20:58:39.400Z,16.97
2018-10-01T21:01:07.584Z,18.10
2018-10-01T21:03:35.791Z,16.57
2018-10-01T21:06:03.995Z,33.10
2018-10-01T21:08:32.227Z,19.80
2018-10-01T21:11:00.408Z,16.93
2018-10-01T21:13:28.610Z,15.73
2018-10-01T21:15:56.828Z,17.57
2018-10-01T21:18:25.023Z,22.33
2018-10-01T21:20:53.228Z,16.33
2018-10-01T21:23:21.510Z,11.80
2018-10-01T21:25:49.695Z,13.83
2018-10-01T21:28:17.907Z,12.20
2018-10-01T21:30:46.119Z,18.90
2018-10-01T21:33:14.519Z,11.47
2018-10-01T21:35:42.479Z,11.87
2018-10-01T21:38:10.704Z,9.97
2018-10-01T21:40:38.920Z,12.83
2018-10-01T21:43:07.128Z,13.40
2018-10-01T21:45:35.334Z,14.43
2018-10-01T21:48:03.520Z,28.17
2018-10-01T21:50:31.742Z,25.57
2018-10-01T21:53:00.000Z,25.03
2018-10-01T21:55:28.217Z,28.77
2018-10-01T21:57:56.412Z,28.27
2018-10-01T22:00:24.633Z,35.00
2018-10-01T22:02:52.810Z,26.03
2018-10-01T22:05:21.095Z,23.17
2018-10-01T22:07:49.327Z,32.57
2018-10-01T22:10:17.539Z,27.03
2018-10-01T22:12:45.820Z,22.27
2018-10-01T22:15:14.660Z,16.73
2018-10-01T22:17:42.879Z,21.53
2018-10-01T22:20:11.076Z,15.27
2018-10-01T22:22:39.264Z,14.90
2018-10-01T22:25:07.476Z,13.33
2018-10-01T22:27:38.687Z,11.83
2018-10-01T22:30:07.025Z,17.23
2018-10-01T22:32:35.228Z,18.37
2018-10-01T22:35:03.187Z,20.00
2018-10-01T22:37:31.131Z,13.87
2018-10-01T22:39:59.176Z,11.67
2018-10-01T22:42:27.398Z,18.03
2018-10-01T22:44:55.576Z,14.47
2018-10-01T22:47:23.772Z,11.90
2018-10-01T22:49:51.983Z,11.10
2018-10-01T22:52:20.190Z,14.67
2018-10-01T22:54:48.379Z,14.90
2018-10-01T22:57:16.578Z,16.50
2018-10-01T22:59:44.788Z,24.87
2018-10-01T23:02:13.015Z,16.20
2018-10-01T23:04:41.203Z,25.57
2018-10-01T23:07:09.401Z,15.40
2018-10-01T23:09:37.596Z,15.47
2018-10-01T23:12:05.800Z,17.23
2018-10-01T23:14:33.979Z,22.70
2018-10-01T23:17:02.183Z,19.53
2018-10-01T23:19:30.379Z,19.50
2018-10-01T23:21:58.688Z,23.83
2018-10-01T23:24:26.890Z,25.93
2018-10-01T23:26:55.111Z,23.53
2018-10-01T23:29:23.301Z,22.20
2018-10-01T23:31:51.508Z,25.40
2018-10-01T23:34:19.753Z,23.03
2018-10-01T23:36:47.895Z,27.10
2018-10-01T23:39:15.861Z,22.70
2018-10-01T23:41:43.798Z,21.90
2018-10-01T23:44:11.987Z,23.30
2018-10-01T23:46:40.179Z,22.83
2018-10-01T23:49:08.383Z,20.03
2018-10-01T23:51:36.583Z,22.60
2018-10-01T23:54:04.781Z,20.60
2018-10-01T23:56:32.988Z,19.00
2018-10-01T23:59:01.180Z,16.10
